createdAt,value
2023-06-27T00:00:35.752Z,99845.34
2023-06-27T00:03:27.672Z,99843.68
2023-06-27T00:06:01.892Z,99836.20
2023-06-27T00:08:34.605Z,99831.05
2023-06-27T00:11:07.367Z,99825.69
2023-06-27T00:13:42.626Z,99825.10
2023-06-27T00:16:15.082Z,99815.36
2023-06-27T00:18:50.209Z,99819.07
2023-06-27T00:21:30.144Z,99840.73
2023-06-27T00:24:02.240Z,99861.82
2023-06-27T00:26:34.729Z,99857.50
2023-06-27T00:29:07.529Z,99842.59
2023-06-27T00:31:39.664Z,99833.10
2023-06-27T00:34:11.705Z,99848.64
2023-06-27T00:36:44.995Z,99855.29
2023-06-27T00:39:16.858Z,99851.02
2023-06-27T00:41:48.600Z,99851.30
2023-06-27T00:44:20.427Z,99849.50
2023-06-27T00:46:53.114Z,99842.02
2023-06-27T00:49:25.055Z,99841.30
2023-06-27T00:51:57.562Z,99848.14
2023-06-27T00:54:29.717Z,99842.67
2023-06-27T00:57:02.391Z,99841.91
2023-06-27T00:59:34.862Z,99846.88
2023-06-27T01:02:10.040Z,99842.45
2023-06-27T01:04:41.924Z,99851.80
2023-06-27T01:07:18.965Z,99853.11
2023-06-27T01:09:53.584Z,99847.65
2023-06-27T01:12:30.153Z,99854.92
2023-06-27T01:15:03.896Z,99856.05
2023-06-27T01:17:38.348Z,99853.16
2023-06-27T01:20:12.360Z,99855.83
2023-06-27T01:22:47.113Z,99853.86
2023-06-27T01:25:19.579Z,99851.27
2023-06-27T01:27:51.561Z,99856.30
2023-06-27T01:30:23.431Z,99855.85
2023-06-27T01:33:00.276Z,99858.60
2023-06-27T01:35:35.548Z,99850.61
2023-06-27T01:38:12.897Z,99847.15
2023-06-27T01:40:45.505Z,99846.16
2023-06-27T01:43:18.145Z,99847.58
2023-06-27T01:45:50.076Z,99849.98
2023-06-27T01:48:22.207Z,99853.67
2023-06-27T01:50:56.778Z,99854.21
2023-06-27T01:53:28.814Z,99860.05
2023-06-27T01:56:00.822Z,99858.09
2023-06-27T01:58:33.122Z,99853.86
2023-06-27T02:01:05.016Z,99848.60
2023-06-27T02:03:37.210Z,99849.54
2023-06-27T02:06:09.108Z,99849.36
2023-06-27T02:08:41.216Z,99854.61
2023-06-27T02:11:13.131Z,99858.31
2023-06-27T02:13:45.332Z,99853.23
2023-06-27T02:16:17.134Z,99854.91
2023-06-27T02:18:49.064Z,99849.07
2023-06-27T02:21:20.986Z,99845.64
2023-06-27T02:23:53.200Z,99845.55
2023-06-27T02:26:25.070Z,99841.67
2023-06-27T02:28:57.096Z,99842.82
2023-06-27T02:31:29.119Z,99847.48
2023-06-27T02:34:01.558Z,99847.20
2023-06-27T02:36:33.790Z,99844.04
2023-06-27T02:39:06.395Z,99838.09
2023-06-27T02:41:38.331Z,99839.23
2023-06-27T02:44:10.331Z,99841.11
2023-06-27T02:46:42.255Z,99837.42
2023-06-27T02:49:14.226Z,99834.42
2023-06-27T02:51:46.038Z,99832.48
2023-06-27T02:54:17.980Z,99832.88
2023-06-27T02:56:49.955Z,99833.16
2023-06-27T02:59:21.910Z,99829.13
2023-06-27T03:01:53.927Z,99820.95
2023-06-27T03:04:26.543Z,99814.52
2023-06-27T03:06:59.126Z,99815.67
2023-06-27T03:09:31.406Z,99814.42
2023-06-27T03:12:03.273Z,99811.48
2023-06-27T03:14:35.203Z,99807.20
2023-06-27T03:17:07.365Z,99797.39
2023-06-27T03:19:44.636Z,99793.86
2023-06-27T03:22:16.731Z,99793.50
2023-06-27T03:24:49.268Z,99794.92
2023-06-27T03:27:23.691Z,99793.84
2023-06-27T03:29:55.833Z,99796.70
2023-06-27T03:32:27.654Z,99801.45
2023-06-27T03:34:59.712Z,99801.14
2023-06-27T03:37:31.660Z,99805.13
2023-06-27T03:40:04.318Z,99808.84
2023-06-27T03:42:36.164Z,99816.67
2023-06-27T03:45:09.819Z,99806.68
2023-06-27T03:47:43.755Z,99795.67
2023-06-27T03:50:15.935Z,99797.83
2023-06-27T03:52:47.750Z,99817.58
2023-06-27T03:55:19.891Z,99823.61
2023-06-27T03:57:51.755Z,99827.21
2023-06-27T04:00:23.646Z,99822.98
2023-06-27T04:02:55.500Z,99823.25
2023-06-27T04:05:27.661Z,99822.52
2023-06-27T04:07:59.470Z,99825.95
2023-06-27T04:10:33.570Z,99835.48
2023-06-27T04:13:05.420Z,99844.24
2023-06-27T04:15:41.165Z,99847.90
2023-06-27T04:18:13.333Z,99851.38
2023-06-27T04:20:45.168Z,99851.80
2023-06-27T04:23:17.035Z,99848.70
2023-06-27T04:26:04.439Z,99847.27
2023-06-27T04:28:36.857Z,99846.80
2023-06-27T04:31:10.701Z,99847.23
2023-06-27T04:33:46.758Z,99857.00
2023-06-27T04:36:21.724Z,99856.88
2023-06-27T04:38:53.763Z,99861.79
2023-06-27T04:41:30.339Z,99861.41
2023-06-27T04:44:02.718Z,99864.23
2023-06-27T04:46:34.821Z,99852.19
2023-06-27T04:49:06.812Z,99849.73
2023-06-27T04:51:40.504Z,99844.77
2023-06-27T04:54:12.486Z,99833.41
2023-06-27T04:56:45.054Z,99830.20
2023-06-27T04:59:18.658Z,99824.65
2023-06-27T05:01:50.625Z,99826.45
2023-06-27T05:04:22.519Z,99822.71
2023-06-27T05:06:55.393Z,99818.17
2023-06-27T05:09:27.345Z,99817.98
2023-06-27T05:11:59.526Z,99812.21
2023-06-27T05:14:31.243Z,99813.42
2023-06-27T05:17:03.439Z,99813.53
2023-06-27T05:19:35.359Z,99808.41
2023-06-27T05:22:07.698Z,99808.02
2023-06-27T05:24:39.726Z,99807.41
2023-06-27T05:27:12.000Z,99803.45
2023-06-27T05:29:43.784Z,99801.83
2023-06-27T05:32:15.880Z,99800.17
2023-06-27T05:34:49.816Z,99798.38
2023-06-27T05:37:22.022Z,99797.08
2023-06-27T05:39:54.010Z,99802.52
2023-06-27T05:42:25.893Z,99812.51
2023-06-27T05:44:57.661Z,99822.80
2023-06-27T05:47:29.727Z,99807.55
2023-06-27T05:50:02.171Z,99803.86
2023-06-27T05:52:34.343Z,99798.65
2023-06-27T05:55:07.326Z,99797.23
2023-06-27T05:57:39.290Z,99805.75
2023-06-27T06:00:14.827Z,99812.67
2023-06-27T06:02:47.312Z,99811.65
2023-06-27T06:05:19.725Z,99808.45
2023-06-27T06:07:51.863Z,99817.36
2023-06-27T06:10:25.468Z,99822.46
2023-06-27T06:12:57.268Z,99828.41
2023-06-27T06:15:29.368Z,99832.70
2023-06-27T06:18:01.303Z,99838.79
2023-06-27T06:20:33.316Z,99847.89
2023-06-27T06:23:05.490Z,99859.77
2023-06-27T06:25:37.706Z,99859.81
2023-06-27T06:28:09.772Z,99869.52
2023-06-27T06:30:41.640Z,99869.33
2023-06-27T06:33:13.868Z,99873.19
2023-06-27T06:35:45.638Z,99872.27
2023-06-27T06:38:17.584Z,99876.70
2023-06-27T06:40:49.426Z,99879.19
2023-06-27T06:43:21.335Z,99883.43
2023-06-27T06:45:55.281Z,99882.14
2023-06-27T06:48:27.289Z,99883.19
2023-06-27T06:51:00.211Z,99888.72
2023-06-27T06:53:32.571Z,99884.78
2023-06-27T06:56:04.508Z,99886.28
2023-06-27T06:58:37.611Z,99887.77
2023-06-27T07:01:09.814Z,99890.69
2023-06-27T07:03:42.757Z,99886.01
2023-06-27T07:06:14.654Z,99892.95
2023-06-27T07:08:46.577Z,99891.39
2023-06-27T07:11:18.575Z,99896.27
2023-06-27T07:13:51.016Z,99898.30
2023-06-27T07:16:23.009Z,99899.24
2023-06-27T07:18:55.290Z,99900.16
2023-06-27T07:21:27.013Z,99897.30
2023-06-27T07:23:58.941Z,99901.09
2023-06-27T07:26:30.870Z,99898.34
2023-06-27T07:29:02.835Z,99910.14
2023-06-27T07:31:34.799Z,99912.41
2023-06-27T07:34:07.016Z,99911.46
2023-06-27T07:36:39.735Z,99916.19
2023-06-27T07:39:11.767Z,99919.11
2023-06-27T07:41:43.989Z,99917.91
2023-06-27T07:44:15.979Z,99912.00
2023-06-27T07:46:47.825Z,99917.94
2023-06-27T07:49:19.915Z,99918.77
2023-06-27T07:51:52.898Z,99918.83
2023-06-27T07:54:27.971Z,99915.30
2023-06-27T07:56:59.870Z,99918.92
2023-06-27T07:59:32.069Z,99914.14
2023-06-27T08:02:04.013Z,99905.71
2023-06-27T08:04:35.943Z,99908.61
2023-06-27T08:07:11.460Z,99907.79
2023-06-27T08:09:44.211Z,99913.20
2023-06-27T08:12:16.160Z,99910.67
2023-06-27T08:14:48.875Z,99913.17
2023-06-27T08:17:21.002Z,99913.86
2023-06-27T08:19:53.007Z,99912.56
2023-06-27T08:22:25.448Z,99913.00
2023-06-27T08:24:57.459Z,99914.97
2023-06-27T08:27:29.659Z,99926.77
2023-06-27T08:30:01.540Z,99925.48
2023-06-27T08:32:33.664Z,99927.08
2023-06-27T08:35:08.103Z,99927.73
2023-06-27T08:37:40.178Z,99924.04
2023-06-27T08:40:15.580Z,99925.33
2023-06-27T08:42:47.498Z,99931.38
2023-06-27T08:45:19.649Z,99932.88
2023-06-27T08:47:52.269Z,99929.54
2023-06-27T08:50:25.566Z,99946.02
2023-06-27T08:53:00.059Z,99944.46
2023-06-27T08:55:37.266Z,99951.98
2023-06-27T08:58:12.993Z,99949.45
2023-06-27T09:00:44.913Z,99950.39
2023-06-27T09:03:17.049Z,99951.35
2023-06-27T09:05:49.851Z,99952.56
2023-06-27T09:08:22.872Z,99956.75
2023-06-27T09:10:55.123Z,99958.70
2023-06-27T09:13:27.637Z,99960.78
2023-06-27T09:15:59.768Z,99967.34
2023-06-27T09:18:31.731Z,99968.54
2023-06-27T09:21:04.326Z,99973.28
2023-06-27T09:23:36.612Z,99975.19
2023-06-27T09:26:12.679Z,99977.88
2023-06-27T09:28:52.012Z,99975.33
2023-06-27T09:31:24.752Z,99970.20
2023-06-27T09:34:09.537Z,99971.92
2023-06-27T09:39:18.802Z,99966.91
2023-06-27T09:41:51.820Z,99966.00
2023-06-27T09:44:26.452Z,99968.68
2023-06-27T09:46:59.356Z,99974.35
2023-06-27T09:49:33.147Z,99973.59
2023-06-27T09:52:07.874Z,99971.52
2023-06-27T09:54:44.549Z,99970.89
2023-06-27T09:57:22.782Z,99970.37
2023-06-27T10:00:00.730Z,99974.14
2023-06-27T10:02:34.474Z,99982.40
2023-06-27T10:05:05.408Z,99977.04
2023-06-27T10:07:38.046Z,99978.71
2023-06-27T10:10:12.422Z,99978.25
2023-06-27T10:12:45.177Z,99977.25
2023-06-27T10:15:18.136Z,99987.48
2023-06-27T10:17:50.719Z,99983.54
2023-06-27T10:20:23.131Z,99984.34
2023-06-27T10:22:55.577Z,99985.91
2023-06-27T10:25:29.041Z,99982.80
2023-06-27T10:28:09.295Z,99986.66
2023-06-27T10:30:48.793Z,99982.95
2023-06-27T10:33:30.354Z,99975.09
2023-06-27T10:36:04.643Z,99977.92
2023-06-27T10:38:37.658Z,99973.80
2023-06-27T10:41:35.008Z,99975.56
2023-06-27T10:44:14.090Z,99973.84
2023-06-27T10:46:47.153Z,99976.82
2023-06-27T10:49:18.855Z,99966.69
2023-06-27T10:51:50.598Z,99971.33
2023-06-27T10:54:22.793Z,99967.93
2023-06-27T10:56:57.931Z,99968.20
2023-06-27T10:59:30.081Z,99956.68
2023-06-27T11:02:06.140Z,99958.80
2023-06-27T11:04:44.034Z,99963.68
2023-06-27T11:07:20.526Z,99966.70
2023-06-27T11:09:56.552Z,99961.85
2023-06-27T11:12:37.881Z,99958.02
2023-06-27T11:15:11.430Z,99955.11
2023-06-27T11:17:43.385Z,99951.48
2023-06-27T11:20:15.794Z,99945.09
2023-06-27T11:22:48.568Z,99946.88
2023-06-27T11:25:22.002Z,99951.27
2023-06-27T11:28:00.566Z,99945.54
2023-06-27T11:30:34.649Z,99949.17
2023-06-27T11:33:07.084Z,99949.52
2023-06-27T11:35:41.017Z,99950.73
2023-06-27T11:38:14.191Z,99954.10
2023-06-27T11:40:53.292Z,99951.17
2023-06-27T11:43:25.434Z,99956.30
2023-06-27T11:45:58.585Z,99946.92
2023-06-27T11:48:30.758Z,99946.84
2023-06-27T11:51:08.774Z,99943.63
2023-06-27T11:53:41.770Z,99947.74
2023-06-27T11:56:22.019Z,99941.38
2023-06-27T11:58:58.749Z,99935.18
2023-06-27T12:01:34.635Z,99929.92
2023-06-27T12:04:16.531Z,99934.96
2023-06-27T12:06:50.273Z,99938.91
2023-06-27T12:09:28.767Z,99944.27
2023-06-27T12:12:05.152Z,99944.95
2023-06-27T12:14:37.572Z,99947.86
2023-06-27T12:17:23.541Z,99944.69
2023-06-27T12:19:55.279Z,99939.23
2023-06-27T12:22:27.190Z,99932.88
2023-06-27T12:24:59.182Z,99930.31
2023-06-27T12:27:37.362Z,99926.31
2023-06-27T12:30:13.294Z,99920.42
2023-06-27T12:32:45.215Z,99919.02
2023-06-27T12:35:19.263Z,99917.20
2023-06-27T12:37:51.615Z,99915.23
2023-06-27T12:40:24.374Z,99909.40
2023-06-27T12:42:59.512Z,99910.48
2023-06-27T12:45:39.210Z,99911.73
2023-06-27T12:48:14.297Z,99908.84
2023-06-27T12:50:46.166Z,99906.77
2023-06-27T12:53:18.622Z,99913.10
2023-06-27T12:55:50.631Z,99908.18
2023-06-27T12:58:22.521Z,99907.27
2023-06-27T13:00:56.365Z,99910.74
2023-06-27T13:03:28.377Z,99904.92
2023-06-27T13:06:00.461Z,99898.73
2023-06-27T13:08:32.371Z,99901.24
2023-06-27T13:11:04.516Z,99904.61
2023-06-27T13:13:37.842Z,99906.86
2023-06-27T13:16:16.004Z,99908.76
2023-06-27T13:18:48.416Z,99910.39
2023-06-27T13:21:20.849Z,99909.34
2023-06-27T13:23:53.581Z,99912.53
2023-06-27T13:26:25.570Z,99913.63
2023-06-27T13:28:58.014Z,99915.02
2023-06-27T13:31:30.481Z,99920.73
2023-06-27T13:34:02.699Z,99938.29
2023-06-27T13:36:34.952Z,99941.30
2023-06-27T13:39:07.134Z,99950.41
2023-06-27T13:41:39.057Z,99953.65
2023-06-27T13:44:12.572Z,99956.28
2023-06-27T13:46:44.801Z,99966.30
2023-06-27T13:49:16.711Z,99976.14
2023-06-27T13:51:48.671Z,99973.34
2023-06-27T13:54:20.682Z,99964.03
2023-06-27T13:56:52.747Z,99964.63
2023-06-27T13:59:24.740Z,99967.61
2023-06-27T14:01:57.078Z,99970.52
2023-06-27T14:04:28.871Z,99968.99
2023-06-27T14:07:01.582Z,99967.69
2023-06-27T14:09:33.697Z,99960.52
2023-06-27T14:12:08.673Z,99962.68
2023-06-27T14:14:40.659Z,99965.40
2023-06-27T14:17:12.609Z,99968.77
2023-06-27T14:19:44.831Z,99962.72
2023-06-27T14:22:16.913Z,99963.95
2023-06-27T14:24:49.165Z,99959.89
2023-06-27T14:27:21.616Z,99962.20
2023-06-27T14:29:53.617Z,99962.80
2023-06-27T14:32:26.082Z,99964.04
2023-06-27T14:34:58.103Z,99958.38
2023-06-27T14:37:30.061Z,99957.78
2023-06-27T14:40:02.060Z,99948.88
2023-06-27T14:42:34.240Z,99945.60
2023-06-27T14:45:07.126Z,99948.98
2023-06-27T14:47:39.200Z,99944.09
2023-06-27T14:50:12.538Z,99945.35
2023-06-27T14:52:44.511Z,99950.33
2023-06-27T14:55:16.571Z,99952.92
2023-06-27T14:57:48.561Z,99950.48
2023-06-27T15:00:21.531Z,99947.60
2023-06-27T15:02:53.632Z,99943.95
2023-06-27T15:05:26.225Z,99943.42
2023-06-27T15:07:58.029Z,99946.69
2023-06-27T15:10:30.246Z,99941.31
2023-06-27T15:13:02.467Z,99937.18
2023-06-27T15:15:34.678Z,99936.15
2023-06-27T15:18:06.882Z,99931.27
2023-06-27T15:20:39.076Z,99928.64
2023-06-27T15:23:12.263Z,99921.20
2023-06-27T15:25:47.234Z,99925.08
2023-06-27T15:28:19.423Z,99921.84
2023-06-27T15:30:51.589Z,99918.48
2023-06-27T15:33:23.506Z,99919.37
2023-06-27T15:35:55.543Z,99922.41
2023-06-27T15:38:27.595Z,99921.85
2023-06-27T15:41:01.182Z,99923.50
2023-06-27T15:43:36.968Z,99924.45
2023-06-27T15:46:09.041Z,99925.51
2023-06-27T15:48:41.411Z,99928.88
2023-06-27T15:51:13.250Z,99931.23
2023-06-27T15:53:45.027Z,99931.70
2023-06-27T15:56:18.005Z,99932.58
2023-06-27T15:58:50.225Z,99936.08
2023-06-27T16:01:22.125Z,99936.37
2023-06-27T16:03:54.207Z,99935.52
2023-06-27T16:06:27.793Z,99933.23
2023-06-27T16:08:59.814Z,99935.20
2023-06-27T16:11:32.740Z,99933.45
2023-06-27T16:14:06.086Z,99928.78
2023-06-27T16:16:36.758Z,99929.86
2023-06-27T16:19:09.103Z,99926.35
2023-06-27T16:21:41.818Z,99934.52
2023-06-27T16:24:13.721Z,99929.89
2023-06-27T16:26:46.327Z,99929.02
2023-06-27T16:29:18.380Z,99933.50
2023-06-27T16:31:51.664Z,99929.94
2023-06-27T16:34:23.814Z,99934.98
2023-06-27T16:36:55.747Z,99931.17
2023-06-27T16:39:27.583Z,99935.10
2023-06-27T16:41:59.560Z,99927.63
2023-06-27T16:44:31.736Z,99937.23
2023-06-27T16:47:03.908Z,99937.19
2023-06-27T16:49:35.858Z,99940.86
2023-06-27T16:52:09.529Z,99953.52
2023-06-27T16:54:41.529Z,99977.95
2023-06-27T16:57:13.673Z,99976.06
2023-06-27T16:59:45.535Z,99977.39
2023-06-27T17:02:17.562Z,99972.23
2023-06-27T17:04:49.617Z,99967.44
2023-06-27T17:07:21.835Z,99962.71
2023-06-27T17:09:53.763Z,99951.72
2023-06-27T17:12:26.062Z,99947.75
2023-06-27T17:14:58.316Z,99948.09
2023-06-27T17:17:30.154Z,99953.02
2023-06-27T17:20:02.168Z,99952.52
2023-06-27T17:22:34.106Z,99947.55
2023-06-27T17:25:06.648Z,99945.96
2023-06-27T17:27:38.866Z,99946.54
2023-06-27T17:30:13.120Z,99940.08
2023-06-27T17:32:47.302Z,99938.48
2023-06-27T17:35:19.527Z,99936.63
2023-06-27T17:37:51.325Z,99932.46
2023-06-27T17:40:23.771Z,99933.17
2023-06-27T17:42:55.847Z,99940.55
2023-06-27T17:45:29.594Z,99943.23
2023-06-27T17:48:02.276Z,99950.65
2023-06-27T17:50:34.872Z,99958.11
2023-06-27T17:53:07.377Z,99966.13
2023-06-27T17:55:39.500Z,99968.66
2023-06-27T17:58:12.216Z,99972.78
2023-06-27T18:00:45.034Z,99978.94
2023-06-27T18:03:17.498Z,99976.91
2023-06-27T18:05:50.297Z,99979.61
2023-06-27T18:08:27.233Z,99981.05
2023-06-27T18:11:04.488Z,99982.69
2023-06-27T18:13:37.031Z,99982.82
2023-06-27T18:16:10.886Z,99987.72
2023-06-27T18:18:41.837Z,99988.11
2023-06-27T18:21:14.414Z,99991.00
2023-06-27T18:23:47.138Z,99997.54
2023-06-27T18:26:20.327Z,99993.78
2023-06-27T18:28:52.474Z,99986.08
2023-06-27T18:31:25.502Z,99988.20
2023-06-27T18:33:57.790Z,99983.44
2023-06-27T18:36:29.930Z,99990.23
2023-06-27T18:39:06.385Z,99987.42
2023-06-27T18:41:39.287Z,99987.52
2023-06-27T18:44:11.958Z,99994.23
2023-06-27T18:46:44.020Z,100000.34
2023-06-27T18:49:16.213Z,100000.13
2023-06-27T18:51:48.063Z,99998.87
2023-06-27T18:54:20.057Z,100000.52
2023-06-27T18:56:52.082Z,100002.02
2023-06-27T18:59:24.233Z,99996.69
2023-06-27T19:01:56.418Z,99999.57
2023-06-27T19:04:28.831Z,100004.42
2023-06-27T19:07:00.844Z,100004.98
2023-06-27T19:09:32.701Z,100009.91
2023-06-27T19:12:04.917Z,100005.47
2023-06-27T19:14:36.908Z,100006.10
2023-06-27T19:17:13.445Z,100004.84
2023-06-27T19:19:50.990Z,100007.14
2023-06-27T19:22:23.874Z,100006.67
2023-06-27T19:24:56.492Z,100007.66
2023-06-27T19:27:28.396Z,100008.24
2023-06-27T19:30:00.413Z,100009.60
2023-06-27T19:32:32.813Z,100011.02
2023-06-27T19:35:04.761Z,100011.84
2023-06-27T19:37:37.675Z,100009.59
2023-06-27T19:40:11.940Z,100010.09
2023-06-27T19:42:43.944Z,100008.67
2023-06-27T19:45:16.048Z,100016.63
2023-06-27T19:47:48.313Z,100012.05
2023-06-27T19:50:20.713Z,100016.40
2023-06-27T19:52:52.807Z,100014.77
2023-06-27T19:55:25.290Z,100016.10
2023-06-27T19:57:59.473Z,100018.66
2023-06-27T20:00:31.617Z,100021.12
2023-06-27T20:03:03.673Z,100024.23
2023-06-27T20:05:40.314Z,100027.86
2023-06-27T20:08:14.036Z,100026.84
2023-06-27T20:10:46.018Z,100020.84
2023-06-27T20:13:17.869Z,100021.67
2023-06-27T20:15:51.003Z,100017.77
2023-06-27T20:18:23.496Z,100019.55
2023-06-27T20:20:55.549Z,100013.27
2023-06-27T20:23:28.004Z,100016.33
2023-06-27T20:25:59.932Z,100016.61
2023-06-27T20:28:31.821Z,100018.73
2023-06-27T20:31:03.917Z,100020.34
2023-06-27T20:33:36.215Z,100020.02
2023-06-27T20:36:08.965Z,100025.13
2023-06-27T20:38:41.892Z,100025.83
2023-06-27T20:41:16.430Z,100028.08
2023-06-27T20:43:48.819Z,100033.33
2023-06-27T20:46:20.686Z,100032.86
2023-06-27T20:48:52.833Z,100032.29
2023-06-27T20:51:24.540Z,100031.20
2023-06-27T20:53:56.720Z,100032.08
2023-06-27T20:56:28.768Z,100034.06
2023-06-27T20:59:00.704Z,100034.45
2023-06-27T21:01:34.114Z,100034.27
2023-06-27T21:04:07.223Z,100032.67
2023-06-27T21:06:39.149Z,100027.11
2023-06-27T21:09:11.013Z,100027.19
2023-06-27T21:11:43.454Z,100030.76
2023-06-27T21:14:15.315Z,100026.41
2023-06-27T21:16:47.038Z,100026.42
2023-06-27T21:19:18.843Z,100025.48
2023-06-27T21:21:51.409Z,100026.84
2023-06-27T21:24:23.402Z,100023.61
2023-06-27T21:26:55.474Z,100030.17
2023-06-27T21:29:27.328Z,100028.02
2023-06-27T21:31:59.534Z,100025.29
2023-06-27T21:34:31.729Z,100029.14
2023-06-27T21:37:03.727Z,100026.49
2023-06-27T21:39:35.828Z,100023.25
2023-06-27T21:42:08.871Z,100026.37
2023-06-27T21:44:40.964Z,100027.47
2023-06-27T21:47:13.033Z,100027.36
2023-06-27T21:49:48.484Z,100026.73
2023-06-27T21:52:21.025Z,100032.10
2023-06-27T21:54:53.136Z,100033.54
2023-06-27T21:57:25.306Z,100037.81
2023-06-27T21:59:57.211Z,100041.80
2023-06-27T22:02:30.823Z,100042.39
2023-06-27T22:05:03.669Z,100039.48
2023-06-27T22:07:36.198Z,100040.08
2023-06-27T22:10:09.615Z,100039.35
2023-06-27T22:12:41.959Z,100038.81
2023-06-27T22:15:14.764Z,100037.42
2023-06-27T22:17:49.811Z,100035.28
2023-06-27T22:20:22.310Z,100038.76
2023-06-27T22:22:57.990Z,100032.60
2023-06-27T22:25:30.938Z,100036.60
2023-06-27T22:28:03.809Z,100032.70
2023-06-27T22:30:36.645Z,100034.62
2023-06-27T22:33:08.749Z,100031.95
2023-06-27T22:35:40.813Z,100029.32
2023-06-27T22:38:13.152Z,100032.64
2023-06-27T22:40:45.533Z,100034.16
2023-06-27T22:43:17.577Z,100031.48
2023-06-27T22:45:49.906Z,100037.14
2023-06-27T22:48:22.138Z,100041.66
2023-06-27T22:50:55.761Z,100038.66
2023-06-27T22:53:28.611Z,100041.48
2023-06-27T22:56:03.615Z,100035.54
2023-06-27T22:58:35.939Z,100039.59
2023-06-27T23:01:08.697Z,100038.29
2023-06-27T23:03:41.024Z,100038.22
2023-06-27T23:06:13.094Z,100037.04
2023-06-27T23:08:45.523Z,100036.10
2023-06-27T23:11:19.316Z,100032.79
2023-06-27T23:13:53.035Z,100034.94
2023-06-27T23:16:25.157Z,100034.96
2023-06-27T23:18:59.803Z,100034.58
2023-06-27T23:21:34.376Z,100034.30
2023-06-27T23:24:10.299Z,100033.20
2023-06-27T23:26:43.972Z,100032.31
2023-06-27T23:29:18.033Z,100033.52
2023-06-27T23:31:51.030Z,100030.59
2023-06-27T23:34:24.745Z,100034.77
2023-06-27T23:36:57.277Z,100033.89
2023-06-27T23:39:29.371Z,100037.61
2023-06-27T23:42:01.445Z,100039.63
2023-06-27T23:44:33.479Z,100035.80
2023-06-27T23:47:05.305Z,100040.83
2023-06-27T23:49:37.606Z,100035.83
2023-06-27T23:52:10.504Z,100038.48
2023-06-27T23:54:42.476Z,100045.70
2023-06-27T23:57:14.398Z,100044.50
2023-06-27T23:59:46.402Z,100040.52
